Time;durP1;ratioP1;P1;durP2;ratioP2;P2;SDS_P1;SDS_P2;PMS_P1;PMS_P2;Temp;Humidity;BMP_temperature;BMP_pressure;BME280_temperature;BME280_humidity;BME280_pressure;Samples;Min_cycle;Max_cycle;Signal;HPM_P1;HPM_P2
2022/06/08 00:00:29;;;;;;;3.50;2.90;;;;;;;14.24;76.80;95210.38;1762601;81;21532;-71
2022/06/08 00:03:04;;;;;;;2.85;2.60;;;;;;;14.32;76.51;95210.54;1762568;81;21536;-71
2022/06/08 00:05:31;;;;;;;4.47;3.10;;;;;;;14.35;75.72;95210.41;1761251;81;21042;-71
2022/06/08 00:07:58;;;;;;;3.75;3.40;;;;;;;14.35;75.62;95208.62;1762529;81;21061;-71
2022/06/08 00:10:25;;;;;;;3.98;2.72;;;;;;;14.31;76.12;95212.30;1762650;81;21042;-71
2022/06/08 00:12:52;;;;;;;3.95;2.77;;;;;;;14.28;76.45;95210.63;1762757;81;21026;-72
2022/06/08 00:15:19;;;;;;;3.42;3.12;;;;;;;14.22;76.54;95202.93;1762388;81;21284;-71
2022/06/08 00:17:45;;;;;;;3.00;2.70;;;;;;;14.16;77.31;95202.30;1762661;81;21011;-71
2022/06/08 00:20:14;;;;;;;3.37;2.80;;;;;;;14.12;76.91;95200.23;1762209;81;21476;-71
2022/06/08 00:22:41;;;;;;;3.00;2.70;;;;;;;14.11;76.80;95203.83;1762617;81;21011;-72
2022/06/08 00:25:09;;;;;;;4.50;2.77;;;;;;;14.13;77.20;95209.91;1762289;81;21026;-72
2022/06/08 00:27:36;;;;;;;3.52;3.22;;;;;;;14.06;76.89;95206.64;1762566;81;20971;-72
2022/06/08 00:30:07;;;;;;;5.97;3.30;;;;;;;14.19;76.98;95207.50;1762437;81;21066;-72
2022/06/08 00:32:34;;;;;;;3.17;2.85;;;;;;;14.22;76.88;95206.91;1762579;81;20999;-71
2022/06/08 00:35:01;;;;;;;3.12;2.77;;;;;;;14.20;77.36;95210.55;1762247;81;21014;-71
2022/06/08 00:37:29;;;;;;;4.35;2.90;;;;;;;14.29;76.97;95211.52;1762262;81;21528;-71
2022/06/08 00:39:56;;;;;;;3.58;3.20;;;;;;;14.27;77.36;95202.28;1762663;81;21046;-71
2022/06/08 00:42:25;;;;;;;3.58;2.87;;;;;;;14.31;76.85;95192.40;1762567;81;21019;-71
2022/06/08 00:45:03;;;;;;;6.40;2.80;;;;;;;14.33;76.77;95198.98;1762644;81;21022;-72
2022/06/08 00:47:35;;;;;;;4.55;2.72;;;;;;;14.33;76.82;95201.64;1762114;81;21606;-71
2022/06/08 00:50:16;;;;;;;3.33;3.02;;;;;;;14.38;78.09;95203.65;1762584;81;21034;-71
2022/06/08 00:52:43;;;;;;;4.12;3.10;;;;;;;14.49;78.14;95204.10;1760698;81;20983;-72
2022/06/08 00:55:15;;;;;;;3.08;2.80;;;;;;;14.60;77.66;95205.02;1727973;81;21560;-72
2022/06/08 00:57:52;;;;;;;4.37;3.05;;;;;;;14.65;77.19;95202.58;1762683;81;21031;-72
2022/06/08 01:00:27;;;;;;;4.03;3.52;;;;;;;14.57;77.93;95195.39;1762623;81;21516;-72
2022/06/08 01:02:54;;;;;;;4.05;3.62;;;;;;;14.58;77.54;95198.91;1762505;81;21524;-72
2022/06/08 01:05:46;;;;;;;5.85;3.47;;;;;;;14.62;77.15;95190.76;1762296;81;21575;-72
2022/06/08 01:08:41;;;;;;;4.80;4.00;;;;;;;14.64;76.68;95194.22;1762073;81;21070;-72
2022/06/08 01:11:43;;;;;;;3.40;3.10;;;;;;;14.63;76.80;95183.17;1761578;81;21054;-72
2022/06/08 01:14:14;;;;;;;3.37;3.08;;;;;;;14.61;76.79;95188.16;1762535;81;20998;-71
2022/06/08 01:16:58;;;;;;;4.03;3.60;;;;;;;14.50;77.47;95188.09;1762565;81;21013;-71
2022/06/08 01:19:27;;;;;;;3.55;3.25;;;;;;;14.43;77.83;95181.77;1762173;81;21003;-71
2022/06/08 01:21:58;;;;;;;3.45;3.15;;;;;;;14.34;78.03;95189.65;1728246;81;21030;-71
2022/06/08 01:24:32;;;;;;;3.70;3.00;;;;;;;14.31;77.46;95180.45;1760196;81;21516;-71
2022/06/08 01:27:11;;;;;;;3.95;3.33;;;;;;;14.27;77.62;95173.56;1762498;81;21153;-72
2022/06/08 01:29:55;;;;;;;4.28;3.37;;;;;;;14.25;78.08;95173.61;1762492;81;21043;-71
2022/06/08 01:32:45;;;;;;;3.87;3.40;;;;;;;14.25;78.18;95168.77;1762708;81;20987;-72
2022/06/08 01:35:47;;;;;;;3.60;3.30;;;;;;;14.20;78.68;95171.60;1762642;81;21042;-72
2022/06/08 01:38:31;;;;;;;;;;;;;;;14.23;78.34;95164.84;1763668;81;21037;-72
2022/06/08 01:41:52;;;;;;;3.40;3.10;;;;;;;14.28;78.03;95162.87;1762645;81;20400;-72
2022/06/08 01:48:03;;;;;;;4.05;3.12;;;;;;;14.31;77.69;95157.05;1728420;81;21102;-70
2022/06/08 01:50:56;;;;;;;3.00;2.77;;;;;;;14.18;77.15;95156.67;1762353;81;21039;-70
2022/06/08 01:53:57;;;;;;;3.20;2.90;;;;;;;14.14;77.58;95160.39;1762622;81;20979;-70
2022/06/08 01:56:39;;;;;;;4.45;3.40;;;;;;;14.00;77.49;95168.41;1762502;81;20982;-71
2022/06/08 01:59:39;;;;;;;7.58;4.10;;;;;;;13.96;77.50;95163.27;1761777;81;21003;-71
2022/06/08 02:02:30;;;;;;;5.00;3.30;;;;;;;13.88;78.54;95163.56;1762846;81;21035;-71
2022/06/08 02:05:23;;;;;;;8.28;3.42;;;;;;;13.80;78.54;95164.33;1762569;81;21026;-72
2022/06/08 02:08:03;;;;;;;;;;;;;;;13.76;79.66;95170.69;1765263;81;20970;-72
2022/06/08 02:10:53;;;;;;;3.55;3.25;;;;;;;13.72;79.32;95169.06;1762244;81;20126;-72
2022/06/08 02:13:39;;;;;;;3.70;3.40;;;;;;;13.83;79.25;95163.77;1762606;81;21038;-72
2022/06/08 02:16:15;;;;;;;12.80;3.77;;;;;;;13.87;78.85;95166.30;1762582;81;21062;-72
2022/06/08 02:18:56;;;;;;;6.20;3.40;;;;;;;13.91;78.70;95166.13;1762348;81;21073;-72
2022/06/08 02:21:33;;;;;;;3.87;3.40;;;;;;;13.90;78.30;95170.16;1762159;81;21101;-72
2022/06/08 02:24:28;;;;;;;3.37;3.08;;;;;;;13.83;78.75;95174.38;1762549;81;21015;-71
2022/06/08 02:27:00;;;;;;;5.10;3.30;;;;;;;13.69;78.90;95180.65;1762527;81;21062;-71
2022/06/08 02:29:41;;;;;;;4.55;3.27;;;;;;;13.59;78.86;95177.94;1728719;81;21461;-71
2022/06/08 02:35:09;;;;;;;2.95;2.75;;;;;;;13.67;78.67;95186.46;1762440;81;21512;-71
2022/06/08 02:37:38;;;;;;;3.40;3.10;;;;;;;13.57;77.90;95188.58;1762796;81;21023;-71
2022/06/08 02:40:17;;;;;;;3.92;3.20;;;;;;;13.45;78.35;95192.14;1762575;81;20983;-72
2022/06/08 02:42:52;;;;;;;4.33;3.40;;;;;;;13.35;79.72;95199.09;1762487;81;21062;-72
2022/06/08 02:45:27;;;;;;;3.80;3.50;;;;;;;13.33;79.80;95203.61;1762489;81;21826;-72
2022/06/08 02:47:59;;;;;;;9.00;3.67;;;;;;;13.32;79.57;95196.56;1762284;81;21027;-72
2022/06/08 02:50:28;;;;;;;3.58;3.27;;;;;;;13.29;79.68;95201.11;1762734;81;21038;-72
2022/06/08 02:53:20;;;;;;;4.75;3.17;;;;;;;13.26;78.99;95208.67;1762335;81;21018;-72
2022/06/08 02:56:06;;;;;;;3.65;3.35;;;;;;;13.29;78.65;95206.41;1757808;81;21552;-72
2022/06/08 02:59:01;;;;;;;7.03;4.12;;;;;;;13.21;78.71;95207.98;1762255;81;21138;-71
2022/06/08 03:01:40;;;;;;;5.00;4.20;;;;;;;13.20;79.65;95204.90;1762110;81;21532;-71
2022/06/08 03:04:15;;;;;;;4.72;3.50;;;;;;;13.15;80.01;95198.91;1762589;81;21549;-71
2022/06/08 03:06:55;;;;;;;3.65;3.35;;;;;;;13.12;79.83;95202.98;1753405;81;21014;-71
2022/06/08 03:09:24;;;;;;;3.30;3.00;;;;;;;13.08;80.85;95207.97;1762394;81;21019;-71
2022/06/08 03:12:02;;;;;;;3.90;3.60;;;;;;;13.03;80.32;95209.91;1762290;81;21556;-71
2022/06/08 03:14:31;;;;;;;5.30;3.92;;;;;;;13.07;80.35;95208.91;1762564;81;21504;-72
2022/06/08 03:17:09;;;;;;;7.53;4.30;;;;;;;13.08;80.71;95207.97;1762319;81;21110;-72
2022/06/08 03:19:37;;;;;;;4.75;3.90;;;;;;;13.16;81.10;95216.55;1762567;81;20990;-72
2022/06/08 03:22:06;;;;;;;6.35;4.35;;;;;;;13.28;80.58;95214.83;1762291;81;20987;-72
2022/06/08 03:24:34;;;;;;;5.12;4.62;;;;;;;13.37;80.46;95216.27;1762727;81;21030;-72
2022/06/08 03:27:08;;;;;;;5.12;4.62;;;;;;;13.46;80.28;95219.07;1762684;81;21049;-72
2022/06/08 03:29:33;;;;;;;;;;;;;;;13.55;80.22;95213.42;1765219;81;21472;-72
2022/06/08 03:32:01;;;;;;;4.78;4.03;;;;;;;13.68;80.35;95212.51;1762807;81;20110;-72
2022/06/08 03:34:29;;;;;;;5.53;4.55;;;;;;;13.72;80.22;95220.30;1762745;81;21014;-72
2022/06/08 03:36:57;;;;;;;5.47;4.22;;;;;;;13.82;80.14;95216.38;1762009;81;21125;-72
2022/06/08 03:39:24;;;;;;;5.87;3.62;;;;;;;13.86;79.46;95217.16;1762717;81;21002;-71
2022/06/08 03:41:51;;;;;;;4.20;3.80;;;;;;;13.95;79.65;95214.60;1762689;81;21054;-71
2022/06/08 03:44:18;;;;;;;4.95;3.80;;;;;;;14.06;79.49;95210.62;1762637;81;21038;-71
2022/06/08 03:47:01;;;;;;;4.83;4.22;;;;;;;14.20;79.34;95211.41;1762361;81;21038;-72
2022/06/08 03:49:28;;;;;;;4.80;3.98;;;;;;;14.21;79.32;95210.50;1761856;81;21066;-71
2022/06/08 03:51:58;;;;;;;5.03;3.85;;;;;;;14.26;78.31;95215.16;1762284;81;21019;-71
2022/06/08 03:54:29;;;;;;;3.55;3.25;;;;;;;14.37;78.71;95216.06;1762716;81;21015;-72
2022/06/08 03:57:00;;;;;;;5.35;4.08;;;;;;;14.52;77.98;95218.58;1762566;81;21509;-71
2022/06/08 03:59:27;;;;;;;5.92;3.65;;;;;;;14.64;77.82;95215.46;1762551;81;21019;-70
2022/06/08 04:01:56;;;;;;;4.33;3.37;;;;;;;14.84;77.64;95218.63;1728502;81;21098;-72
2022/06/08 04:04:22;;;;;;;4.40;4.00;;;;;;;15.02;77.40;95213.45;1762369;81;21073;-71
2022/06/08 04:06:49;;;;;;;4.85;3.80;;;;;;;15.19;77.81;95211.42;1762530;81;21496;-72
2022/06/08 04:09:18;;;;;;;4.50;3.95;;;;;;;15.43;77.90;95218.81;1762329;81;21030;-72
2022/06/08 04:11:47;;;;;;;5.30;4.00;;;;;;;15.56;76.53;95208.89;1762466;81;21483;-71
2022/06/08 04:14:13;;;;;;;4.85;4.35;;;;;;;15.65;75.87;95212.95;1762673;81;21010;-71
2022/06/08 04:16:41;;;;;;;5.87;4.37;;;;;;;15.81;76.75;95213.63;1762351;81;21050;-71
2022/06/08 04:19:10;;;;;;;4.35;3.80;;;;;;;16.00;75.65;95214.49;1762606;81;21062;-71
2022/06/08 04:21:37;;;;;;;4.62;4.22;;;;;;;16.17;74.94;95211.92;1762180;81;21038;-71
2022/06/08 04:24:08;;;;;;;4.50;4.10;;;;;;;16.28;74.75;95214.55;1765922;81;21037;-70
2022/06/08 04:26:35;;;;;;;4.55;4.15;;;;;;;16.38;73.82;95222.05;1766369;81;21018;-70
2022/06/08 04:29:16;;;;;;;6.70;4.28;;;;;;;16.57;74.28;95219.36;1765810;81;21504;-71
2022/06/08 04:31:46;;;;;;;5.53;4.00;;;;;;;16.80;73.99;95214.27;1736473;81;21015;-71
2022/06/08 04:34:19;;;;;;;4.37;3.98;;;;;;;17.01;73.46;95216.37;1766299;81;21086;-72
2022/06/08 04:36:46;;;;;;;6.50;4.20;;;;;;;17.19;72.74;95217.24;1766249;81;21119;-72
2022/06/08 04:39:16;;;;;;;4.60;3.65;;;;;;;17.38;72.49;95218.96;1766223;81;21017;-72
2022/06/08 04:41:45;;;;;;;6.67;4.30;;;;;;;17.43;71.65;95212.92;1765576;81;21086;-72
2022/06/08 04:44:13;;;;;;;5.78;3.83;;;;;;;17.46;70.65;95224.76;1766301;81;21010;-72
2022/06/08 04:46:40;;;;;;;4.70;3.47;;;;;;;17.48;71.08;95217.55;1766399;81;20998;-72
2022/06/08 04:49:09;;;;;;;9.43;3.92;;;;;;;17.47;70.62;95218.50;1766069;81;21556;-71
2022/06/08 04:51:36;;;;;;;4.45;3.40;;;;;;;17.43;71.63;95210.25;1766335;81;21572;-70
2022/06/08 04:54:03;;;;;;;3.75;3.45;;;;;;;17.43;71.63;95210.25;1766333;81;21485;-71
2022/06/08 04:56:31;;;;;;;6.60;3.90;;;;;;;17.40;71.91;95209.94;1736345;81;21038;-71
2022/06/08 04:58:59;;;;;;;5.42;4.03;;;;;;;17.40;71.71;95205.94;1766428;81;20994;-69
2022/06/08 05:01:27;;;;;;;7.72;3.65;;;;;;;17.51;71.59;95203.59;1766308;81;21026;-70
2022/06/08 05:03:55;;;;;;;12.88;3.87;;;;;;;17.66;70.24;95199.71;1766529;81;20995;-69
2022/06/08 05:06:22;;;;;;;9.70;4.10;;;;;;;17.86;69.53;95204.03;1766392;81;21085;-69
2022/06/08 05:08:51;;;;;;;8.25;4.25;;;;;;;18.00;68.31;95201.48;1766059;81;21018;-71
2022/06/08 05:11:18;;;;;;;10.45;4.00;;;;;;;18.14;66.73;95206.95;1766071;81;21022;-72
2022/06/08 05:13:46;;;;;;;6.47;3.90;;;;;;;18.27;66.99;95201.80;1766440;81;21017;-72
2022/06/08 05:16:14;;;;;;;8.88;3.58;;;;;;;18.45;67.11;95203.92;1766128;81;21500;-68
2022/06/08 05:18:42;;;;;;;7.87;3.40;;;;;;;18.57;66.37;95199.68;1765871;81;21488;-70
2022/06/08 05:21:11;;;;;;;6.05;3.47;;;;;;;18.60;66.42;95198.20;1765182;81;21069;-70
2022/06/08 05:23:40;;;;;;;11.00;3.72;;;;;;;18.72;66.54;95201.52;1763405;81;21615;-69
2022/06/08 05:26:09;;;;;;;8.73;3.40;;;;;;;18.94;66.90;95206.50;1761787;81;21536;-70
2022/06/08 05:28:37;;;;;;;5.87;3.22;;;;;;;19.12;64.84;95200.56;1762470;81;21090;-69
2022/06/08 05:31:05;;;;;;;6.30;4.10;;;;;;;19.20;64.10;95196.98;1762119;81;21018;-67
2022/06/08 05:33:33;;;;;;;8.00;4.15;;;;;;;19.27;63.15;95202.81;1760873;81;21077;-67
2022/06/08 05:36:03;;;;;;;6.65;4.25;;;;;;;19.35;62.52;95194.33;1761111;81;21062;-70
2022/06/08 05:38:29;;;;;;;3.67;3.15;;;;;;;19.43;63.16;95188.92;1761299;81;21610;-70
2022/06/08 05:40:57;;;;;;;5.35;4.10;;;;;;;19.53;63.67;95191.02;1761941;81;21034;-71
2022/06/08 05:43:25;;;;;;;4.10;3.72;;;;;;;19.60;63.15;95191.05;1761289;81;21065;-66
2022/06/08 05:45:53;;;;;;;3.98;3.33;;;;;;;19.63;62.88;95187.73;1728597;81;21054;-70
2022/06/08 05:48:20;;;;;;;4.25;3.30;;;;;;;19.60;62.99;95187.88;1761606;81;21066;-67
2022/06/08 05:50:48;;;;;;;3.55;3.20;;;;;;;19.51;63.09;95191.14;1760933;81;21041;-69
2022/06/08 05:53:17;;;;;;;6.30;3.40;;;;;;;19.54;63.26;95192.28;1760823;81;21081;-67
2022/06/08 05:55:45;;;;;;;3.80;3.40;;;;;;;19.62;63.34;95198.03;1761718;81;21018;-70
2022/06/08 05:58:12;;;;;;;4.22;3.35;;;;;;;19.66;63.22;95196.90;1762206;81;21054;-68
2022/06/08 06:00:42;;;;;;;8.38;3.70;;;;;;;19.67;62.42;95191.95;1762479;81;21626;-69
2022/06/08 06:03:10;;;;;;;4.35;3.90;;;;;;;19.68;62.11;95188.82;1761683;81;21014;-70
2022/06/08 06:05:39;;;;;;;4.33;3.42;;;;;;;19.70;62.89;95190.05;1727874;81;21010;-65
2022/06/08 06:08:09;;;;;;;4.10;3.58;;;;;;;19.76;63.28;95194.56;1761739;81;21496;-66
2022/06/08 06:10:43;;;;;;;3.77;3.35;;;;;;;19.85;63.90;95196.66;1761863;81;21070;-66
2022/06/08 06:13:11;;;;;;;;;;;;;;;19.95;63.89;95201.45;1764783;81;21068;-66
2022/06/08 06:15:39;;;;;;;4.20;3.65;;;;;;;20.04;63.48;95195.05;1760926;81;20177;-66
2022/06/08 06:18:07;;;;;;;4.00;3.60;;;;;;;20.15;62.53;95195.71;1762202;81;20971;-67
2022/06/08 06:20:36;;;;;;;67.80;37.15;;;;;;;20.23;62.94;95201.44;1761491;81;21002;-66
2022/06/08 06:23:05;;;;;;;7.85;7.10;;;;;;;20.28;62.49;95196.66;1758551;81;21587;-66
2022/06/08 06:25:50;;;;;;;3.90;3.60;;;;;;;20.34;62.19;95201.27;1761759;81;21577;-69
2022/06/08 06:28:31;;;;;;;4.87;3.98;;;;;;;20.38;62.39;95204.12;1700754;81;21527;-68
2022/06/08 06:31:23;;;;;;;9.25;3.83;;;;;;;20.39;62.58;95202.70;1758068;81;21056;-70
2022/06/08 06:33:58;;;;;;;4.45;3.67;;;;;;;20.48;62.33;95201.23;1760868;81;21085;-70
2022/06/08 06:36:25;;;;;;;7.12;6.28;;;;;;;20.60;62.23;95205.84;1761660;81;21050;-67
2022/06/08 06:38:52;;;;;;;5.17;3.92;;;;;;;20.73;62.25;95207.25;1727080;81;21034;-68
2022/06/08 06:41:21;;;;;;;4.37;4.08;;;;;;;20.90;61.97;95212.38;1761576;81;21073;-68
2022/06/08 06:43:50;;;;;;;4.92;3.83;;;;;;;21.00;61.85;95212.64;1761775;81;21570;-67
2022/06/08 06:46:25;;;;;;;4.67;4.22;;;;;;;21.12;61.27;95212.32;1758028;81;22182;-68
2022/06/08 06:49:03;;;;;;;4.80;3.95;;;;;;;21.12;60.83;95213.17;1760219;81;21108;-69
2022/06/08 06:51:31;;;;;;;4.70;4.00;;;;;;;21.17;61.67;95212.88;1761632;81;21089;-68
2022/06/08 06:53:58;;;;;;;4.30;3.75;;;;;;;21.25;61.91;95207.85;1760633;81;21053;-68
2022/06/08 06:56:26;;;;;;;4.37;3.98;;;;;;;21.36;61.55;95205.30;1762202;81;21026;-69
2022/06/08 06:58:57;;;;;;;6.33;4.33;;;;;;;21.44;60.90;95202.13;1761645;81;21014;-70
2022/06/08 07:01:26;;;;;;;5.35;4.85;;;;;;;21.49;59.95;95199.98;1761741;81;21022;-64
2022/06/08 07:03:53;;;;;;;5.40;4.72;;;;;;;21.55;59.13;95190.68;1762048;81;21630;-69
2022/06/08 07:06:20;;;;;;;6.72;4.20;;;;;;;21.65;59.53;95186.40;1762258;81;21532;-67
2022/06/08 07:08:47;;;;;;;5.87;4.17;;;;;;;21.72;58.40;95188.16;1762562;81;21054;-68
2022/06/08 07:11:33;;;;;;;4.62;4.22;;;;;;;21.75;57.60;95190.16;1762744;81;21426;-69
2022/06/08 07:14:04;;;;;;;5.60;4.97;;;;;;;21.81;58.27;95189.72;1760416;81;21041;-68
2022/06/08 07:16:32;;;;;;;7.80;4.17;;;;;;;21.80;57.25;95187.16;1760797;81;21583;-68
2022/06/08 07:19:00;;;;;;;4.20;3.85;;;;;;;21.96;57.86;95183.77;1761916;81;21046;-68
2022/06/08 07:21:29;;;;;;;5.40;4.20;;;;;;;22.15;57.94;95180.66;1761945;81;21480;-68
2022/06/08 07:23:56;;;;;;;5.03;4.10;;;;;;;22.30;57.10;95175.17;1756576;81;21682;-68
2022/06/08 07:26:28;;;;;;;5.40;4.10;;;;;;;22.27;54.29;95173.56;1743409;82;21007;-68
2022/06/08 07:28:56;;;;;;;4.03;3.65;;;;;;;22.15;54.72;95171.26;1748226;82;21582;-68
2022/06/08 07:31:24;;;;;;;6.25;3.80;;;;;;;22.28;56.31;95173.96;1745742;81;21477;-69
2022/06/08 07:33:51;;;;;;;4.60;4.15;;;;;;;22.46;56.09;95167.73;1745182;82;21520;-68
2022/06/08 07:36:18;;;;;;;8.60;7.87;;;;;;;22.62;56.38;95166.98;1731160;83;21659;-68
2022/06/08 07:38:45;;;;;;;7.05;5.42;;;;;;;22.80;56.51;95170.16;1753042;82;21093;-68
2022/06/08 07:41:12;;;;;;;4.17;3.60;;;;;;;22.96;55.88;95159.63;1729973;82;21523;-68
2022/06/08 07:43:39;;;;;;;5.12;4.22;;;;;;;23.08;54.58;95158.72;1734681;82;21062;-67
2022/06/08 07:46:06;;;;;;;4.62;3.95;;;;;;;23.17;54.96;95167.45;1697168;83;21038;-72
2022/06/08 07:51:20;;;;;;;5.45;4.30;;;;;;;23.42;54.37;95165.11;1725608;83;21007;-69
2022/06/08 07:53:46;;;;;;;3.98;3.67;;;;;;;23.51;54.00;95158.15;1745842;82;21003;-68
2022/06/08 07:56:13;;;;;;;4.00;3.70;;;;;;;23.62;53.64;95164.08;1749022;82;21028;-69
2022/06/08 07:58:40;;;;;;;4.65;4.00;;;;;;;23.69;53.87;95159.45;1743342;81;21070;-70
2022/06/08 08:01:07;;;;;;;4.30;3.90;;;;;;;23.79;54.13;95159.63;1743470;82;21062;-66
2022/06/08 08:03:34;;;;;;;4.33;3.92;;;;;;;23.82;52.05;95158.53;1743142;81;21014;-66
2022/06/08 08:06:01;;;;;;;5.40;4.20;;;;;;;23.85;53.56;95155.09;1742740;82;21109;-65
2022/06/08 08:08:28;;;;;;;4.30;4.00;;;;;;;23.96;52.35;95149.73;1742733;82;21097;-66
2022/06/08 08:10:56;;;;;;;6.45;4.20;;;;;;;23.98;53.15;95149.10;1745410;82;21525;-66
2022/06/08 08:13:23;;;;;;;4.83;4.35;;;;;;;24.08;52.25;95156.47;1741309;82;21476;-66
2022/06/08 08:15:51;;;;;;;5.35;4.60;;;;;;;24.16;52.43;95158.91;1740243;82;21081;-66
2022/06/08 08:18:18;;;;;;;6.53;4.42;;;;;;;24.17;52.90;95158.45;1737674;82;21061;-66
2022/06/08 08:20:46;;;;;;;6.60;4.70;;;;;;;24.25;52.19;95150.60;1737976;82;21057;-67
2022/06/08 08:23:14;;;;;;;5.72;4.53;;;;;;;24.21;51.25;95144.22;1740640;81;21030;-66
2022/06/08 08:25:41;;;;;;;5.15;4.33;;;;;;;24.34;52.20;95144.95;1756883;81;21090;-65
2022/06/08 08:28:08;;;;;;;5.70;4.78;;;;;;;24.48;51.93;95146.08;1758152;81;21476;-66
2022/06/08 08:30:36;;;;;;;5.17;4.67;;;;;;;24.56;50.72;95144.11;1766250;80;20999;-64
2022/06/08 08:33:03;;;;;;;4.67;4.20;;;;;;;24.50;49.84;95135.19;1793666;79;20981;-65
2022/06/08 08:35:30;;;;;;;4.75;4.35;;;;;;;24.64;51.38;95136.24;1739532;82;21071;-65
2022/06/08 08:37:58;;;;;;;5.55;4.42;;;;;;;24.80;49.54;95132.67;1739586;82;21526;-63
2022/06/08 08:40:36;;;;;;;4.95;4.45;;;;;;;24.91;49.47;95129.58;1757903;81;21023;-65
2022/06/08 08:43:03;;;;;;;4.83;3.92;;;;;;;24.94;50.14;95132.02;1743841;82;21006;-65
2022/06/08 08:45:34;;;;;;;4.70;4.20;;;;;;;25.08;49.56;95129.53;1777331;80;21000;-66
2022/06/08 08:48:09;;;;;;;6.08;4.35;;;;;;;25.18;48.13;95116.51;1753155;81;21002;-64
2022/06/08 08:50:51;;;;;;;5.45;4.97;;;;;;;25.26;49.08;95111.31;1736719;82;21058;-63
2022/06/08 08:53:29;;;;;;;7.10;4.22;;;;;;;25.37;50.07;95114.94;1767143;81;21512;-64
2022/06/08 08:56:09;;;;;;;7.40;4.25;;;;;;;25.56;49.24;95111.55;1737526;82;20991;-64
2022/06/08 08:58:40;;;;;;;6.22;4.50;;;;;;;25.69;48.92;95106.79;1756744;81;20984;-64
2022/06/08 09:01:24;;;;;;;11.00;4.50;;;;;;;25.90;48.00;95105.44;1745309;82;20975;-65
2022/06/08 09:04:02;;;;;;;7.05;4.62;;;;;;;25.99;48.25;95106.50;1745310;81;21046;-65
2022/06/08 09:06:32;;;;;;;5.95;4.00;;;;;;;26.15;49.13;95103.30;1735609;82;21031;-64
2022/06/08 09:09:04;;;;;;;8.63;4.50;;;;;;;26.24;47.40;95099.28;1744584;81;21038;-65
2022/06/08 09:11:36;;;;;;;6.08;4.33;;;;;;;26.38;46.75;95093.98;1745073;81;21591;-65
2022/06/08 09:14:08;;;;;;;5.85;4.20;;;;;;;26.54;46.19;95100.28;1743541;82;21061;-65
2022/06/08 09:16:40;;;;;;;3.65;3.33;;;;;;;26.60;45.82;95106.48;1744558;82;21027;-65
2022/06/08 09:19:30;;;;;;;5.22;3.67;;;;;;;26.66;42.76;95098.30;1744725;81;20979;-65
2022/06/08 09:22:13;;;;;;;4.42;3.90;;;;;;;26.79;43.62;95103.45;1744876;82;21027;-65
2022/06/08 09:24:57;;;;;;;4.65;3.70;;;;;;;26.71;44.00;95099.63;1744394;82;21498;-65
2022/06/08 09:27:34;;;;;;;8.08;3.65;;;;;;;26.83;43.49;95104.90;1744850;82;21034;-65
2022/06/08 09:30:16;;;;;;;4.12;3.72;;;;;;;27.01;43.25;95097.79;1745263;81;21046;-65
2022/06/08 09:32:57;;;;;;;6.20;3.53;;;;;;;27.12;43.84;95099.03;1745083;82;21043;-65
2022/06/08 09:35:37;;;;;;;5.15;3.75;;;;;;;27.26;43.13;95104.54;1744414;81;21449;-65
2022/06/08 09:38:13;;;;;;;5.37;3.65;;;;;;;27.07;40.02;95104.52;1744238;82;21085;-64
2022/06/08 09:40:45;;;;;;;3.90;3.60;;;;;;;26.93;41.19;95104.41;1744798;81;20975;-65
2022/06/08 09:43:25;;;;;;;7.42;3.55;;;;;;;27.11;40.19;95105.42;1741038;82;21075;-64
2022/06/08 09:46:18;;;;;;;4.92;3.33;;;;;;;27.16;40.45;95103.65;1744918;82;21115;-65
2022/06/08 09:52:13;;;;;;;4.92;3.12;;;;;;;27.11;41.34;95087.82;1745301;81;21053;-65
2022/06/08 09:55:23;;;;;;;4.75;3.08;;;;;;;27.13;39.02;95091.25;1745054;82;20991;-65
2022/06/08 09:58:15;;;;;;;5.65;2.95;;;;;;;27.37;40.46;95097.64;1745383;82;21022;-65
2022/06/08 10:00:59;;;;;;;5.75;3.15;;;;;;;27.62;40.01;95101.61;1745073;81;21043;-65
2022/06/08 10:04:10;;;;;;;6.95;3.20;;;;;;;27.74;37.90;95093.30;1745253;81;21067;-65
2022/06/08 10:07:19;;;;;;;3.20;2.72;;;;;;;27.79;39.73;95092.37;1745367;81;21003;-64
2022/06/08 10:10:17;;;;;;;3.75;2.87;;;;;;;27.70;37.44;95084.63;1744982;82;21525;-64
2022/06/08 10:13:01;;;;;;;3.87;2.60;;;;;;;27.78;38.33;95087.96;1744798;82;21024;-64
2022/06/08 10:15:45;;;;;;;3.75;2.75;;;;;;;27.79;36.76;95079.66;1745308;81;21485;-64
2022/06/08 10:18:22;;;;;;;3.95;2.80;;;;;;;27.61;37.74;95077.35;1745046;81;21034;-65
2022/06/08 10:20:55;;;;;;;2.95;2.67;;;;;;;27.77;38.41;95068.61;1745318;81;21003;-65
2022/06/08 10:23:36;;;;;;;;;;;;;;;28.00;39.27;95063.24;1747671;81;21022;-65
2022/06/08 10:26:24;;;;;;;4.47;2.52;;;;;;;28.18;37.57;95063.83;1747325;82;20090;-65
2022/06/08 10:29:21;;;;;;;2.90;2.25;;;;;;;28.22;37.53;95068.80;1754992;82;21576;-65
2022/06/08 10:32:20;;;;;;;5.62;2.40;;;;;;;28.28;35.58;95057.85;1755258;82;21106;-65
2022/06/08 10:34:53;;;;;;;3.80;2.60;;;;;;;28.37;36.42;95058.28;1755400;82;20983;-65
2022/06/08 10:37:22;;;;;;;5.20;2.40;;;;;;;28.42;35.53;95056.48;1754374;82;21122;-64
2022/06/08 10:39:50;;;;;;;3.92;2.40;;;;;;;28.55;36.15;95061.11;1755259;82;21505;-64
2022/06/08 10:42:40;;;;;;;2.27;2.10;;;;;;;28.75;35.57;95060.46;1755267;82;20999;-64
2022/06/08 10:45:34;;;;;;;3.17;2.60;;;;;;;28.81;35.61;95063.94;1755117;82;21442;-64
2022/06/08 10:48:15;;;;;;;2.98;1.95;;;;;;;28.85;34.03;95065.36;1755527;82;20979;-65
2022/06/08 10:50:48;;;;;;;5.08;2.12;;;;;;;28.80;33.05;95064.92;1755254;82;21031;-65
2022/06/08 10:56:41;;;;;;;2.50;2.30;;;;;;;28.84;35.12;95062.27;1755249;82;21077;-65
2022/06/08 10:59:16;;;;;;;4.22;2.35;;;;;;;28.86;33.88;95057.55;1754385;82;21066;-65
2022/06/08 11:02:18;;;;;;;3.37;2.20;;;;;;;28.80;34.18;95049.99;1755217;82;21042;-65
2022/06/08 11:05:08;;;;;;;4.92;2.50;;;;;;;28.94;33.89;95039.63;1754801;82;21027;-65
2022/06/08 11:08:13;;;;;;;3.25;2.00;;;;;;;29.06;34.48;95037.07;1755353;82;21497;-65
2022/06/08 11:10:51;;;;;;;3.58;2.22;;;;;;;29.23;36.05;95025.83;1755080;82;21081;-65
2022/06/08 11:13:25;;;;;;;4.45;2.42;;;;;;;29.36;33.27;95024.95;1751529;82;21544;-65
2022/06/08 11:16:16;;;;;;;3.98;2.30;;;;;;;29.40;34.84;95029.03;1727791;82;21018;-65
2022/06/08 11:18:56;;;;;;;4.50;2.83;;;;;;;29.34;33.51;95031.87;1755292;82;21026;-65
2022/06/08 11:21:35;;;;;;;2.42;2.22;;;;;;;29.23;32.37;95025.83;1755363;82;21038;-64
2022/06/08 11:24:20;;;;;;;2.75;2.22;;;;;;;29.15;32.22;95024.41;1755089;81;21011;-65
2022/06/08 11:26:54;;;;;;;2.92;2.45;;;;;;;28.86;33.62;95024.11;1764621;81;21026;-64
2022/06/08 11:29:54;;;;;;;4.35;2.30;;;;;;;29.09;34.73;95024.02;1737179;81;21026;-65
2022/06/08 11:32:38;;;;;;;5.03;2.08;;;;;;;29.08;32.84;95028.23;1764615;81;21042;-65
2022/06/08 11:35:40;;;;;;;5.55;2.52;;;;;;;29.24;33.50;95027.55;1764639;81;21516;-65
2022/06/08 11:38:37;;;;;;;5.03;2.50;;;;;;;29.26;32.27;95024.18;1764860;81;21048;-65
2022/06/08 11:41:30;;;;;;;5.03;2.30;;;;;;;28.99;32.21;95024.58;1759033;81;21046;-65
2022/06/08 11:44:03;;;;;;;3.65;2.30;;;;;;;29.16;34.67;95027.48;1764972;81;20967;-65
2022/06/08 11:46:38;;;;;;;4.47;2.27;;;;;;;29.31;31.90;95024.56;1764542;81;21057;-65
2022/06/08 11:49:25;;;;;;;4.00;2.12;;;;;;;29.34;31.31;95012.86;1764615;81;21122;-65
2022/06/08 11:51:52;;;;;;;3.10;2.25;;;;;;;29.49;32.19;95015.02;1764884;81;21006;-65
2022/06/08 11:54:31;;;;;;;3.42;2.40;;;;;;;29.61;31.73;95006.95;1764645;81;21010;-64
2022/06/08 11:57:19;;;;;;;2.60;1.92;;;;;;;29.73;31.42;94996.16;1764595;81;21077;-64
2022/06/08 11:59:47;;;;;;;4.58;2.20;;;;;;;29.93;33.30;94989.14;1764843;81;21109;-64
2022/06/08 12:02:25;;;;;;;3.30;2.47;;;;;;;30.15;31.72;95002.70;1764755;81;20990;-65
2022/06/08 12:04:56;;;;;;;3.10;2.10;;;;;;;30.09;30.52;94991.97;1762336;81;21106;-65
2022/06/08 12:07:50;;;;;;;5.50;2.30;;;;;;;30.25;31.33;94995.29;1765057;81;20971;-65
2022/06/08 12:10:21;;;;;;;2.67;2.20;;;;;;;30.59;29.54;94983.48;1764255;81;21098;-65
2022/06/08 12:12:49;;;;;;;3.22;2.35;;;;;;;30.94;30.05;94986.98;1764840;81;21126;-65
2022/06/08 12:15:46;;;;;;;7.15;2.60;;;;;;;31.36;30.10;94986.00;1764603;81;21022;-65
2022/06/08 12:18:30;;;;;;;4.12;2.37;;;;;;;31.62;28.71;94992.13;1764934;81;20998;-65
2022/06/08 12:21:20;;;;;;;2.22;1.82;;;;;;;32.20;28.31;94982.47;1764959;81;21046;-65
2022/06/08 12:24:15;;;;;;;2.00;1.90;;;;;;;32.28;27.09;94985.16;1764767;81;21058;-65
2022/06/08 12:26:59;;;;;;;3.00;1.98;;;;;;;32.63;27.43;94979.73;1739857;82;21525;-65